Time;durP1;ratioP1;P1;durP2;ratioP2;P2;SDS_P1;SDS_P2;PMS_P1;PMS_P2;Temp;Humidity;BMP_temperature;BMP_pressure;BME280_temperature;BME280_humidity;BME280_pressure;Samples;Min_cycle;Max_cycle;Signal;HPM_P1;HPM_P2
2023/08/15 00:00:52;;;;;;;3.97;2.20;;;;;;;20.84;78.40;101104.41;4882105;29;20036;-93
2023/08/15 00:03:17;;;;;;;5.88;2.53;;;;;;;20.83;78.89;101100.94;4889244;29;20469;-93
2023/08/15 00:05:42;;;;;;;4.50;2.35;;;;;;;20.85;79.21;101108.75;4888322;29;20024;-92
2023/08/15 00:08:08;;;;;;;4.82;2.72;;;;;;;20.88;79.05;101116.50;4880905;29;20033;-94
2023/08/15 00:10:33;;;;;;;6.68;2.67;;;;;;;20.88;78.74;101113.84;4881330;29;20076;-92
2023/08/15 00:12:58;;;;;;;3.47;2.33;;;;;;;20.87;78.78;101112.16;4881209;29;20028;-94
2023/08/15 00:15:24;;;;;;;4.97;2.60;;;;;;;20.86;79.04;101107.81;4880817;29;20041;-93
2023/08/15 00:17:49;;;;;;;5.53;2.55;;;;;;;20.86;79.21;101107.81;4876086;29;20422;-93
2023/08/15 00:20:14;;;;;;;5.47;2.38;;;;;;;20.85;79.54;101090.25;4874875;29;20594;-92
2023/08/15 00:22:40;;;;;;;4.40;2.67;;;;;;;20.86;79.51;101091.94;4879135;29;20060;-91
2023/08/15 00:25:05;;;;;;;3.60;2.53;;;;;;;20.84;79.35;101085.91;4877645;29;20037;-92
2023/08/15 00:27:30;;;;;;;5.35;2.70;;;;;;;20.81;79.73;101081.66;4882390;29;20035;-92
2023/08/15 00:29:56;;;;;;;4.47;2.50;;;;;;;20.81;79.00;101079.03;4876213;29;20033;-92
2023/08/15 00:32:21;;;;;;;4.55;2.55;;;;;;;20.77;79.16;101081.03;4878992;29;20481;-91
2023/08/15 00:34:46;;;;;;;6.75;2.60;;;;;;;20.72;79.37;101088.38;4882237;29;20024;-92
2023/08/15 00:37:12;;;;;;;4.95;2.38;;;;;;;20.65;80.32;101087.09;4880747;29;20033;-92
2023/08/15 00:39:37;;;;;;;4.55;2.70;;;;;;;20.59;81.02;101095.41;4887356;29;20025;-92
2023/08/15 00:42:02;;;;;;;5.90;2.53;;;;;;;20.55;81.15;101091.25;4885840;29;20044;-91
2023/08/15 00:44:27;;;;;;;4.50;2.60;;;;;;;20.50;81.43;101088.91;4879126;29;20028;-92
2023/08/15 00:46:53;;;;;;;6.05;2.90;;;;;;;20.46;81.40;101083.00;4880064;29;20037;-92
2023/08/15 00:49:18;;;;;;;4.43;2.75;;;;;;;20.44;82.08;101092.81;4876347;29;20019;-92
2023/08/15 00:51:46;;;;;;;6.10;2.88;;;;;;;20.40;82.27;101093.94;4878212;29;20033;-94
2023/08/15 00:54:12;;;;;;;5.40;2.97;;;;;;;20.35;82.44;101101.28;4878960;29;20069;-92
2023/08/15 00:56:38;;;;;;;5.07;2.60;;;;;;;20.32;82.59;101096.22;4864557;29;20024;-91
2023/08/15 00:59:03;;;;;;;4.30;2.53;;;;;;;20.30;82.95;101103.41;4881455;29;20033;-92
2023/08/15 01:01:30;;;;;;;5.85;2.97;;;;;;;20.27;83.19;101099.13;4876816;29;20032;-92
2023/08/15 01:03:56;;;;;;;6.00;3.00;;;;;;;20.25;83.63;101095.75;4868245;29;20033;-91
2023/08/15 01:06:21;;;;;;;5.68;3.25;;;;;;;20.25;83.38;101102.81;4873184;29;20040;-91
2023/08/15 01:08:47;;;;;;;5.07;2.97;;;;;;;20.26;83.18;101108.00;4877392;29;20025;-91
2023/08/15 01:11:13;;;;;;;6.43;3.03;;;;;;;20.28;83.35;101100.00;4869463;29;20036;-92
2023/08/15 01:13:48;;;;;;;5.70;3.08;;;;;;;20.28;82.88;101094.72;4876056;29;20024;-93
2023/08/15 01:16:18;;;;;;;6.78;3.00;;;;;;;20.29;83.06;101099.06;4879600;29;20070;-92
2023/08/15 01:18:55;;;;;;;4.53;2.78;;;;;;;20.29;82.54;101096.41;4877795;29;20478;-93
2023/08/15 01:21:25;;;;;;;5.78;2.90;;;;;;;20.29;83.33;101091.13;4877089;29;20078;-92
2023/08/15 01:23:52;;;;;;;5.83;3.17;;;;;;;20.27;82.14;101090.38;4865950;29;20143;-93
2023/08/15 01:26:18;;;;;;;4.90;2.80;;;;;;;20.22;81.50;101079.25;4876539;29;20319;-93
2023/08/15 01:28:43;;;;;;;6.70;2.88;;;;;;;20.16;79.16;101086.59;4877565;29;20021;-92
2023/08/15 01:31:20;;;;;;;5.00;2.90;;;;;;;20.09;78.59;101090.59;4878241;29;20031;-92
2023/08/15 01:33:56;;;;;;;7.32;2.78;;;;;;;20.02;78.05;101095.41;4878286;29;20052;-92
2023/08/15 01:36:28;;;;;;;6.13;2.80;;;;;;;19.99;77.42;101105.28;4877876;29;20035;-93
2023/08/15 01:38:56;;;;;;;7.18;2.65;;;;;;;19.96;76.70;101108.13;4867024;29;20029;-92
2023/08/15 01:41:25;;;;;;;5.30;2.97;;;;;;;19.93;76.66;101116.25;4881662;29;20151;-88
2023/08/15 01:43:51;;;;;;;4.68;2.50;;;;;;;19.88;77.53;101121.81;4898079;29;20025;-92
2023/08/15 01:46:17;;;;;;;4.05;2.42;;;;;;;19.85;76.22;101132.50;4866184;29;20021;-92
2023/08/15 01:48:42;;;;;;;5.55;2.50;;;;;;;19.85;76.63;101151.84;4866219;29;20973;-92
2023/08/15 01:51:08;;;;;;;4.47;2.67;;;;;;;19.85;76.05;101154.47;4868198;29;20045;-94
2023/08/15 01:53:35;;;;;;;4.70;2.50;;;;;;;19.84;76.33;101150.13;4877854;29;20025;-93
2023/08/15 01:56:01;;;;;;;5.93;2.33;;;;;;;19.84;76.35;101146.66;4876151;29;20037;-92
2023/08/15 01:58:26;;;;;;;5.63;2.25;;;;;;;19.83;76.56;101153.72;4875792;29;20092;-92
2023/08/15 02:00:51;;;;;;;5.43;2.70;;;;;;;19.80;76.02;101156.56;4864233;29;20108;-93
2023/08/15 02:03:17;;;;;;;5.25;2.45;;;;;;;19.77;76.11;101154.09;4873497;29;20056;-93
2023/08/15 02:05:42;;;;;;;4.32;2.63;;;;;;;19.76;76.36;101162.97;4876557;29;20461;-93
2023/08/15 02:08:08;;;;;;;4.78;2.53;;;;;;;19.73;76.24;101157.84;4878605;29;20426;-93
2023/08/15 02:10:33;;;;;;;10.10;2.78;;;;;;;19.70;76.26;101158.03;4868511;29;20084;-93
2023/08/15 02:12:58;;;;;;;6.00;2.80;;;;;;;19.69;76.61;101164.25;4874210;29;20201;-92
2023/08/15 02:15:24;;;;;;;7.28;2.30;;;;;;;19.66;76.11;101162.66;4866860;29;20041;-92
2023/08/15 02:17:49;;;;;;;6.65;2.70;;;;;;;19.65;76.81;101166.22;4871650;29;20168;-93
2023/08/15 02:20:14;;;;;;;5.38;2.50;;;;;;;19.63;76.18;101173.38;4873700;29;20032;-93
2023/08/15 02:22:40;;;;;;;4.78;2.50;;;;;;;19.59;76.90;101171.03;4878395;29;20056;-93
2023/08/15 02:25:06;;;;;;;5.07;2.70;;;;;;;19.58;76.93;101179.88;4874831;29;20536;-93
2023/08/15 02:27:31;;;;;;;4.97;2.72;;;;;;;19.53;77.02;101178.34;4877306;29;20032;-92
2023/08/15 02:29:56;;;;;;;4.82;2.55;;;;;;;19.50;77.21;101191.72;4878418;29;20033;-93
2023/08/15 02:32:21;;;;;;;5.80;2.65;;;;;;;19.45;77.35;101175.31;4876667;29;20460;-92
2023/08/15 02:34:47;;;;;;;5.63;2.35;;;;;;;19.44;77.78;101172.75;4874754;29;20087;-94
2023/08/15 02:37:12;;;;;;;5.80;2.50;;;;;;;19.41;77.56;101184.34;4878209;29;20057;-92
2023/08/15 02:39:37;;;;;;;8.30;2.67;;;;;;;19.38;77.79;101189.78;4876655;29;20025;-93
2023/08/15 02:42:02;;;;;;;7.43;2.78;;;;;;;19.33;77.99;101183.91;4877594;29;20033;-91
2023/08/15 02:44:28;;;;;;;7.00;2.70;;;;;;;19.29;77.76;101171.88;4877120;29;20035;-93
2023/08/15 02:46:53;;;;;;;7.05;2.40;;;;;;;19.26;78.13;101173.75;4877575;29;20037;-92
2023/08/15 02:49:19;;;;;;;5.03;2.50;;;;;;;19.22;77.96;101166.94;4877072;29;20022;-93
2023/08/15 02:51:44;;;;;;;5.57;2.33;;;;;;;19.20;77.76;101163.53;4875755;29;20064;-93
2023/08/15 02:54:09;;;;;;;4.53;2.25;;;;;;;19.19;78.08;101164.47;4874270;29;20033;-91
2023/08/15 02:56:35;;;;;;;6.43;2.30;;;;;;;19.17;78.03;101170.78;4877793;29;20081;-93
2023/08/15 02:59:00;;;;;;;6.47;2.20;;;;;;;19.14;77.77;101166.50;4876568;29;20824;-92
2023/08/15 03:01:25;;;;;;;5.40;2.20;;;;;;;19.14;77.80;101176.22;4877327;29;20036;-93
2023/08/15 03:03:50;;;;;;;5.90;2.40;;;;;;;19.10;78.08;101180.81;4876437;29;20053;-92
2023/08/15 03:06:16;;;;;;;6.35;2.10;;;;;;;19.07;78.40;101181.81;4858956;29;20556;-93
2023/08/15 03:08:41;;;;;;;6.88;2.17;;;;;;;19.04;78.39;101186.44;4876610;29;20036;-92
2023/08/15 03:11:06;;;;;;;5.68;2.15;;;;;;;19.00;78.92;101192.81;4876963;29;20037;-93
2023/08/15 03:13:31;;;;;;;5.50;2.10;;;;;;;18.96;78.36;101190.34;4872384;29;20029;-93
2023/08/15 03:15:57;;;;;;;5.40;2.00;;;;;;;18.92;78.82;101196.72;4868704;29;20028;-93
2023/08/15 03:18:23;;;;;;;4.18;1.85;;;;;;;18.88;79.26;101183.75;4876139;29;20029;-85
2023/08/15 03:20:56;;;;;;;4.30;2.03;;;;;;;18.83;79.07;101193.72;4900009;29;20017;-90
2023/08/15 03:23:21;;;;;;;6.10;2.08;;;;;;;18.79;79.42;101199.16;4874632;29;20461;-95
2023/08/15 03:25:57;;;;;;;6.68;2.20;;;;;;;18.74;79.58;101195.91;4860409;29;20041;-93
2023/08/15 03:28:22;;;;;;;7.25;2.28;;;;;;;18.71;79.93;101201.34;4875187;29;20088;-93
2023/08/15 03:30:48;;;;;;;5.00;1.73;;;;;;;18.69;79.87;101197.09;4876346;29;20025;-91
2023/08/15 03:33:13;;;;;;;6.50;2.13;;;;;;;18.65;80.40;101194.63;4880677;29;20043;-94
2023/08/15 03:35:46;;;;;;;4.88;1.85;;;;;;;18.62;80.13;101192.16;4875971;29;20029;-92
2023/08/15 03:38:14;;;;;;;4.90;1.98;;;;;;;18.59;80.39;101186.22;4874918;29;20501;-91
2023/08/15 03:40:40;;;;;;;5.45;1.83;;;;;;;18.54;80.80;101186.47;4864525;29;20036;-93
2023/08/15 03:43:05;;;;;;;5.60;2.05;;;;;;;18.52;80.77;101192.75;4877428;29;20098;-92
2023/08/15 03:45:30;;;;;;;3.90;2.10;;;;;;;18.48;81.03;101195.56;4864873;29;20029;-93
2023/08/15 03:47:55;;;;;;;5.70;2.15;;;;;;;18.46;81.20;101191.28;4871189;29;20469;-93
2023/08/15 03:50:21;;;;;;;5.57;2.10;;;;;;;18.42;81.40;101195.88;4878326;29;20060;-93
2023/08/15 03:52:46;;;;;;;4.35;1.92;;;;;;;18.41;81.60;101191.53;4879489;29;20434;-92
2023/08/15 03:55:12;;;;;;;4.35;2.17;;;;;;;18.38;81.59;101188.22;4880439;29;20060;-93
2023/08/15 03:57:37;;;;;;;3.53;2.10;;;;;;;18.35;81.91;101183.97;4879923;29;20044;-92
2023/08/15 04:00:05;;;;;;;4.45;2.10;;;;;;;18.32;81.83;101192.03;4879265;29;20111;-92
2023/08/15 04:02:30;;;;;;;6.07;2.17;;;;;;;18.28;82.05;101196.59;4863977;29;20036;-93
2023/08/15 04:04:55;;;;;;;6.63;2.13;;;;;;;18.26;82.17;101198.47;4879796;29;20028;-94
2023/08/15 04:07:20;;;;;;;7.93;2.20;;;;;;;18.25;81.97;101196.78;4874795;29;20482;-92
2023/08/15 04:09:46;;;;;;;6.47;2.03;;;;;;;18.24;82.56;101197.72;4879212;29;20043;-93
2023/08/15 04:12:11;;;;;;;6.20;2.00;;;;;;;18.23;82.67;101195.13;4880476;29;20029;-93
2023/08/15 04:14:36;;;;;;;7.53;2.08;;;;;;;18.21;82.36;101203.13;4877493;29;20069;-92
2023/08/15 04:17:02;;;;;;;4.88;2.72;;;;;;;18.19;82.69;101199.72;4881422;29;20048;-93
2023/08/15 04:19:27;;;;;;;6.32;2.30;;;;;;;18.17;82.44;101202.44;4885894;29;20058;-93
2023/08/15 04:21:52;;;;;;;4.35;2.08;;;;;;;18.14;82.89;101202.59;4879832;29;20115;-93
2023/08/15 04:24:19;;;;;;;4.95;2.25;;;;;;;18.12;83.25;101187.78;4881113;29;20035;-92
2023/08/15 04:26:45;;;;;;;4.35;2.10;;;;;;;18.10;83.51;101184.41;4864344;29;20108;-93
2023/08/15 04:29:10;;;;;;;6.53;2.28;;;;;;;18.09;83.76;101195.88;4855606;29;20045;-92
2023/08/15 04:31:35;;;;;;;6.53;2.08;;;;;;;18.08;83.83;101205.53;4869191;29;20025;-94
2023/08/15 04:34:00;;;;;;;5.47;2.25;;;;;;;18.05;83.70;101192.53;4873938;29;20029;-92
2023/08/15 04:36:26;;;;;;;8.35;2.33;;;;;;;18.05;84.14;101208.34;4877785;29;20062;-92
2023/08/15 04:38:51;;;;;;;5.80;2.22;;;;;;;18.02;84.65;101217.25;4862113;29;20029;-92
2023/08/15 04:41:17;;;;;;;4.07;2.35;;;;;;;18.00;84.50;101215.63;4867311;29;20049;-92
2023/08/15 04:43:42;;;;;;;8.43;2.38;;;;;;;17.95;84.37;101228.97;4872442;29;20488;-92
2023/08/15 04:46:07;;;;;;;6.15;2.38;;;;;;;17.94;84.57;101221.16;4876943;29;20036;-93
2023/08/15 04:48:32;;;;;;;6.97;2.45;;;;;;;17.91;85.15;101222.19;4875689;29;20112;-93
2023/08/15 04:50:58;;;;;;;5.68;2.55;;;;;;;17.89;84.98;101238.03;4860645;29;20073;-94
2023/08/15 04:53:23;;;;;;;5.40;2.25;;;;;;;17.87;84.94;101231.16;4871184;29;20081;-94
2023/08/15 04:55:48;;;;;;;5.82;2.40;;;;;;;17.84;85.56;101247.97;4872104;29;20393;-94
2023/08/15 04:58:14;;;;;;;4.55;2.03;;;;;;;17.82;85.55;101259.47;4872212;29;20467;-92
2023/08/15 05:00:39;;;;;;;6.18;2.47;;;;;;;17.79;85.92;101264.88;4872663;29;20033;-93
2023/08/15 05:03:04;;;;;;;5.78;2.40;;;;;;;17.75;86.03;101264.19;4868463;29;20033;-93
2023/08/15 05:05:30;;;;;;;7.50;2.50;;;;;;;17.73;86.34;101274.81;4870529;29;20036;-95
2023/08/15 05:07:55;;;;;;;4.55;2.15;;;;;;;17.71;86.21;101271.41;4870404;29;20457;-92
2023/08/15 05:10:20;;;;;;;4.10;2.30;;;;;;;17.72;86.62;101281.00;4870217;29;20477;-91
2023/08/15 05:12:45;;;;;;;6.05;2.50;;;;;;;17.72;86.67;101283.63;4868776;29;20036;-94
2023/08/15 05:15:11;;;;;;;6.35;2.33;;;;;;;17.71;87.08;101281.06;4858238;29;20104;-93
2023/08/15 05:17:36;;;;;;;5.18;2.30;;;;;;;17.70;86.78;101293.38;4874392;29;20485;-92
2023/08/15 05:20:03;;;;;;;8.27;2.47;;;;;;;17.70;87.36;101290.75;4872770;29;20025;-94
2023/08/15 05:22:28;;;;;;;7.85;2.50;;;;;;;17.72;87.19;101302.06;4870838;29;20045;-92
2023/08/15 05:24:54;;;;;;;4.30;2.20;;;;;;;17.75;87.13;101301.91;4849484;29;20029;-92
2023/08/15 05:27:19;;;;;;;6.45;2.67;;;;;;;17.78;87.22;101302.66;4872562;29;20025;-94
2023/08/15 05:29:44;;;;;;;4.78;2.45;;;;;;;17.80;87.31;101311.34;4875364;29;20025;-92
2023/08/15 05:32:10;;;;;;;6.28;2.42;;;;;;;17.81;87.36;101310.41;4876125;29;20166;-93
2023/08/15 05:34:35;;;;;;;5.70;2.80;;;;;;;17.83;87.60;101308.56;4861361;29;20044;-93
2023/08/15 05:37:00;;;;;;;6.55;2.38;;;;;;;17.85;88.07;101323.34;4868019;29;20116;-93
2023/08/15 05:39:26;;;;;;;6.65;2.60;;;;;;;17.87;88.30;101323.28;4878249;29;20385;-93
2023/08/15 05:41:51;;;;;;;5.00;2.60;;;;;;;17.90;88.46;101320.50;4860592;29;20165;-92
2023/08/15 05:44:16;;;;;;;6.72;2.30;;;;;;;17.91;88.48;101314.31;4872777;29;20037;-92
2023/08/15 05:46:41;;;;;;;5.85;2.50;;;;;;;17.95;87.84;101310.56;4870738;29;20036;-94
2023/08/15 05:49:07;;;;;;;5.85;2.63;;;;;;;17.99;87.94;101303.44;4867608;29;20038;-93
2023/08/15 05:51:32;;;;;;;5.30;2.78;;;;;;;18.01;87.31;101302.41;4875417;29;20260;-92
2023/08/15 05:53:57;;;;;;;5.35;2.50;;;;;;;18.06;87.99;101312.72;4876769;29;20036;-93
2023/08/15 05:56:22;;;;;;;6.35;3.00;;;;;;;18.11;87.74;101312.47;4877506;29;20470;-93
2023/08/15 05:58:49;;;;;;;7.05;2.88;;;;;;;18.15;88.19;101319.31;4877747;29;20132;-95
2023/08/15 06:01:14;;;;;;;6.93;2.72;;;;;;;18.18;88.07;101329.69;4875348;29;20129;-93
2023/08/15 06:03:39;;;;;;;6.13;2.63;;;;;;;18.21;88.55;101324.28;4878488;29;20029;-95
2023/08/15 06:06:04;;;;;;;8.00;3.10;;;;;;;18.24;87.99;101329.41;4871086;29;20495;-93
2023/08/15 06:08:30;;;;;;;6.60;2.80;;;;;;;18.28;87.70;101325.66;4876659;29;20040;-93
2023/08/15 06:10:55;;;;;;;5.78;2.78;;;;;;;18.30;87.94;101323.78;4877126;29;20033;-93
2023/08/15 06:13:20;;;;;;;6.47;2.70;;;;;;;18.33;87.73;101320.16;4867607;29;20038;-93
2023/08/15 06:15:45;;;;;;;6.18;2.63;;;;;;;18.37;87.59;101320.84;4866326;29;20466;-93
2023/08/15 06:18:11;;;;;;;6.93;2.90;;;;;;;18.40;88.43;101333.88;4879060;29;20029;-94
2023/08/15 06:20:36;;;;;;;7.95;2.70;;;;;;;18.43;87.85;101339.00;4878253;29;20067;-92
2023/08/15 06:23:02;;;;;;;7.82;2.90;;;;;;;18.47;87.95;101345.78;4878339;29;20052;-94
2023/08/15 06:25:27;;;;;;;7.95;3.30;;;;;;;18.52;86.77;101342.94;4877571;29;20045;-94
2023/08/15 06:27:53;;;;;;;8.32;3.08;;;;;;;18.55;87.14;101353.31;4862391;29;20059;-94
2023/08/15 06:30:18;;;;;;;6.68;3.20;;;;;;;18.60;87.65;101365.34;4879121;29;20546;-93
2023/08/15 06:32:45;;;;;;;8.57;3.10;;;;;;;18.64;87.39;101353.69;4877599;29;20115;-94
2023/08/15 06:35:10;;;;;;;6.07;3.05;;;;;;;18.65;87.22;101360.66;4879024;29;20037;-93
2023/08/15 06:37:35;;;;;;;6.10;2.90;;;;;;;18.69;87.38;101355.22;4878147;29;20029;-93
2023/08/15 06:40:01;;;;;;;8.25;3.42;;;;;;;18.69;87.72;101352.59;4878265;29;20029;-93
2023/08/15 06:42:26;;;;;;;8.18;3.00;;;;;;;18.71;87.60;101358.66;4878147;29;20031;-91
2023/08/15 06:45:03;;;;;;;5.22;3.00;;;;;;;18.75;86.86;101361.03;4876594;29;20029;-92
2023/08/15 06:47:29;;;;;;;5.50;2.78;;;;;;;18.83;88.24;101362.44;4870799;29;20539;-93
2023/08/15 06:49:54;;;;;;;6.95;3.13;;;;;;;18.87;87.23;101362.19;4884495;29;20050;-89
2023/08/15 06:52:19;;;;;;;7.35;3.47;;;;;;;18.93;87.71;101369.78;4887968;29;20059;-93
2023/08/15 06:54:46;;;;;;;6.82;3.33;;;;;;;18.98;85.97;101366.94;4878626;29;20041;-93
2023/08/15 06:57:11;;;;;;;6.80;3.22;;;;;;;19.02;85.57;101373.75;4872449;29;20034;-93
2023/08/15 06:59:36;;;;;;;7.05;3.50;;;;;;;19.06;86.38;101371.78;4875023;29;20372;-93
2023/08/15 07:02:02;;;;;;;7.45;3.30;;;;;;;19.13;86.54;101375.78;4882421;29;20035;-94
2023/08/15 07:04:27;;;;;;;5.50;2.95;;;;;;;19.14;85.24;101372.22;4873857;29;20104;-94
2023/08/15 07:06:56;;;;;;;5.18;3.10;;;;;;;19.17;85.58;101372.06;4875835;29;20039;-93
2023/08/15 07:09:21;;;;;;;8.07;3.55;;;;;;;19.21;85.09;101373.59;4862852;29;20493;-92
2023/08/15 07:11:46;;;;;;;7.75;3.30;;;;;;;19.23;83.89;101382.28;4871550;29;20064;-93
2023/08/15 07:14:12;;;;;;;9.48;3.42;;;;;;;19.26;84.55;101376.84;4877541;29;20093;-92
2023/08/15 07:16:37;;;;;;;9.60;3.22;;;;;;;19.32;85.24;101380.94;4874343;29;20027;-92
2023/08/15 07:19:04;;;;;;;6.55;3.20;;;;;;;19.38;83.96;101380.63;4880355;29;20327;-92
2023/08/15 07:21:29;;;;;;;7.72;3.33;;;;;;;19.44;84.38;101383.84;4880508;29;20049;-92
2023/08/15 07:23:55;;;;;;;8.15;3.30;;;;;;;19.49;83.96;101390.56;4880478;29;20580;-92
2023/08/15 07:26:20;;;;;;;8.32;3.30;;;;;;;19.52;84.09;101379.84;4871102;29;20040;-92
2023/08/15 07:28:45;;;;;;;8.10;3.17;;;;;;;19.59;83.15;101382.16;4880365;29;20571;-91
2023/08/15 07:31:10;;;;;;;8.05;3.20;;;;;;;19.64;83.28;101385.41;4877336;29;20061;-91
2023/08/15 07:33:36;;;;;;;8.10;3.15;;;;;;;19.67;81.89;101383.44;4873533;29;20029;-92
2023/08/15 07:36:01;;;;;;;7.05;3.05;;;;;;;19.71;82.42;101390.25;4878870;29;20028;-93
2023/08/15 07:38:26;;;;;;;6.97;3.53;;;;;;;19.77;82.96;101391.69;4877673;29;20509;-93
2023/08/15 07:40:51;;;;;;;9.23;3.17;;;;;;;19.82;81.17;101389.63;4881236;29;20040;-92
2023/08/15 07:43:17;;;;;;;5.35;2.40;;;;;;;19.90;81.84;101394.50;4879961;29;20083;-94
2023/08/15 07:45:42;;;;;;;7.78;2.83;;;;;;;19.94;81.27;101401.31;4876984;29;20391;-92
2023/08/15 07:48:07;;;;;;;6.80;2.90;;;;;;;19.95;80.59;101394.28;4877778;29;20104;-91
2023/08/15 07:50:33;;;;;;;8.05;2.95;;;;;;;19.98;80.54;101399.38;4873037;29;20068;-92
2023/08/15 07:52:58;;;;;;;10.23;2.95;;;;;;;19.97;79.93;101403.78;4873973;29;20657;-92
2023/08/15 07:55:24;;;;;;;8.38;2.83;;;;;;;19.97;79.76;101392.41;4876970;29;20044;-90
2023/08/15 07:57:49;;;;;;;9.88;3.20;;;;;;;19.98;80.09;101394.94;4879259;29;20116;-92
2023/08/15 08:00:15;;;;;;;8.02;2.58;;;;;;;20.00;80.19;101408.91;4873115;29;20484;-92
2023/08/15 08:02:42;;;;;;;5.78;2.55;;;;;;;20.02;80.08;101412.31;4874113;29;20029;-92
2023/08/15 08:05:09;;;;;;;6.45;2.42;;;;;;;20.04;79.93;101408.75;4875184;29;20112;-91
2023/08/15 08:07:35;;;;;;;7.55;2.50;;;;;;;20.06;80.38;101418.28;4874697;29;20028;-90
2023/08/15 08:10:01;;;;;;;5.60;2.17;;;;;;;20.06;81.52;101415.63;4873256;29;20036;-93
2023/08/15 08:12:28;;;;;;;5.68;2.53;;;;;;;20.05;79.38;101413.94;4867989;29;20033;-92
2023/08/15 08:14:53;;;;;;;7.25;2.30;;;;;;;20.05;79.66;101421.84;4873948;29;20036;-92
2023/08/15 08:17:18;;;;;;;9.20;2.90;;;;;;;20.04;79.88;101420.16;4881874;29;20028;-91
2023/08/15 08:19:44;;;;;;;6.85;2.40;;;;;;;20.04;79.20;101417.50;4880523;29;20040;-91
2023/08/15 08:22:09;;;;;;;5.82;2.22;;;;;;;20.06;79.22;101420.91;4879764;29;20056;-92
2023/08/15 08:24:34;;;;;;;9.35;2.53;;;;;;;20.07;79.53;101419.13;4882947;29;20039;-92
2023/08/15 08:26:59;;;;;;;7.25;2.17;;;;;;;20.07;79.16;101425.25;4881555;29;20133;-93
2023/08/15 08:29:25;;;;;;;4.63;2.20;;;;;;;20.06;78.54;101423.56;4867477;29;20591;-94
2023/08/15 08:31:50;;;;;;;5.32;2.38;;;;;;;20.08;78.33;101431.38;4877632;29;20044;-91
2023/08/15 08:34:15;;;;;;;6.30;2.63;;;;;;;20.09;78.77;101426.03;4879111;29;20128;-90
2023/08/15 08:36:41;;;;;;;6.15;2.50;;;;;;;20.13;80.26;101424.91;4883839;29;20036;-91
2023/08/15 08:39:09;;;;;;;7.50;2.35;;;;;;;20.16;79.34;101423.88;4881149;29;20058;-92
2023/08/15 08:41:35;;;;;;;5.07;2.20;;;;;;;20.17;79.39;101425.59;4876898;29;20410;-92
2023/08/15 08:44:01;;;;;;;4.90;2.20;;;;;;;20.19;79.79;101414.91;4893460;29;20048;-92
2023/08/15 08:46:28;;;;;;;3.08;1.77;;;;;;;20.20;80.84;101412.22;4881888;29;20052;-91
2023/08/15 08:48:56;;;;;;;5.07;1.88;;;;;;;20.25;81.20;101417.22;4885004;29;20020;-90
2023/08/15 08:51:23;;;;;;;6.75;2.33;;;;;;;20.26;78.93;101422.41;4881005;29;20111;-91
2023/08/15 08:53:49;;;;;;;9.52;2.47;;;;;;;20.26;78.95;101427.69;4881619;29;20122;-92
2023/08/15 08:56:17;;;;;;;7.28;2.40;;;;;;;20.27;78.49;101431.19;4883641;29;20484;-93
2023/08/15 08:58:48;;;;;;;5.93;2.30;;;;;;;20.27;79.82;101425.91;4882647;29;20120;-90
2023/08/15 09:01:13;;;;;;;5.93;2.10;;;;;;;20.28;78.76;101431.09;4879302;29;20020;-90
2023/08/15 09:03:39;;;;;;;5.45;2.08;;;;;;;20.30;79.86;101428.38;4881472;29;20099;-91
2023/08/15 09:06:04;;;;;;;5.32;2.00;;;;;;;20.34;80.69;101426.41;4878803;29;20036;-91
2023/08/15 09:08:30;;;;;;;5.05;2.13;;;;;;;20.38;79.07;101431.41;4880577;29;20080;-92
2023/08/15 09:10:55;;;;;;;5.93;2.10;;;;;;;20.41;79.59;101428.59;4876698;29;20036;-91
2023/08/15 09:13:23;;;;;;;4.97;2.00;;;;;;;20.44;79.65;101433.72;4879110;29;20060;-93
2023/08/15 09:15:49;;;;;;;8.27;2.50;;;;;;;20.49;79.00;101435.25;4881740;29;20100;-92
2023/08/15 09:18:14;;;;;;;6.40;2.10;;;;;;;20.52;79.55;101437.69;4879717;29;20043;-92
2023/08/15 09:20:46;;;;;;;8.43;2.50;;;;;;;20.54;79.18;101433.16;4880081;29;20397;-91
2023/08/15 09:23:12;;;;;;;12.55;2.90;;;;;;;20.56;78.64;101444.50;4879037;29;20498;-93
2023/08/15 09:25:37;;;;;;;7.43;2.67;;;;;;;20.59;79.75;101446.97;4861341;29;20025;-95
2023/08/15 09:28:05;;;;;;;6.65;2.55;;;;;;;20.62;79.56;101452.09;4880174;29;20035;-94
2023/08/15 09:30:30;;;;;;;7.03;2.25;;;;;;;20.62;79.30;101452.94;4881096;29;20478;-94
2023/08/15 09:32:56;;;;;;;8.25;2.20;;;;;;;20.63;79.38;101454.63;4879304;29;20034;-94
2023/08/15 09:35:22;;;;;;;6.38;2.53;;;;;;;20.68;79.53;101462.28;4878987;29;20029;-94
2023/08/15 09:37:49;;;;;;;6.68;2.50;;;;;;;20.71;79.78;101461.28;4879819;29;20117;-94
2023/08/15 09:40:17;;;;;;;6.72;2.47;;;;;;;20.73;79.55;101465.53;4877076;29;20080;-94
2023/08/15 09:42:43;;;;;;;7.63;2.38;;;;;;;20.76;78.32;101465.38;4877933;29;20040;-94
2023/08/15 09:45:11;;;;;;;7.10;2.42;;;;;;;20.82;78.34;101468.59;4882971;29;20076;-94
2023/08/15 09:47:38;;;;;;;8.98;2.60;;;;;;;20.90;79.54;101474.28;4878539;29;20046;-93
2023/08/15 09:50:06;;;;;;;7.70;2.17;;;;;;;20.95;79.15;101469.56;4883021;29;20068;-95
2023/08/15 09:52:32;;;;;;;11.25;2.50;;;;;;;20.98;76.10;101468.53;4875428;29;20058;-93
2023/08/15 09:54:57;;;;;;;6.25;2.53;;;;;;;21.03;77.09;101477.88;4879938;29;20477;-94
2023/08/15 09:57:23;;;;;;;7.00;2.50;;;;;;;21.11;77.50;101479.22;4877170;29;20150;-93
2023/08/15 09:59:48;;;;;;;7.32;2.00;;;;;;;21.15;77.63;101476.31;4878077;29;20043;-92
2023/08/15 10:02:21;;;;;;;6.97;2.60;;;;;;;21.22;78.00;101482.94;4877579;29;20036;-91
2023/08/15 10:04:56;;;;;;;7.38;2.50;;;;;;;21.28;76.18;101476.41;4879160;29;20036;-91
2023/08/15 10:07:22;;;;;;;5.38;2.10;;;;;;;21.32;75.32;101488.53;4880105;29;20063;-91
2023/08/15 10:09:50;;;;;;;5.28;2.25;;;;;;;21.37;76.78;101488.22;4876860;29;20029;-92
2023/08/15 10:12:17;;;;;;;9.60;2.60;;;;;;;21.41;74.80;101496.81;4876179;29;20052;-94
2023/08/15 10:14:44;;;;;;;7.18;2.40;;;;;;;21.45;75.50;101498.34;4880541;29;20032;-93
2023/08/15 10:17:10;;;;;;;9.43;2.70;;;;;;;21.49;75.37;101490.13;4877132;29;20481;-92
2023/08/15 10:19:35;;;;;;;5.50;2.15;;;;;;;21.53;74.91;101489.00;4879924;29;20032;-93
2023/08/15 10:22:02;;;;;;;6.45;2.45;;;;;;;21.61;74.11;101493.84;4882190;29;20139;-91
2023/08/15 10:24:29;;;;;;;6.68;2.42;;;;;;;21.70;73.38;101499.50;4881160;29;20059;-85
2023/08/15 10:26:58;;;;;;;5.80;2.35;;;;;;;21.75;75.08;101500.06;4887267;29;20066;-96
2023/08/15 10:29:25;;;;;;;5.82;2.35;;;;;;;21.80;74.30;101505.94;4908648;29;20031;-93
2023/08/15 10:31:58;;;;;;;6.78;2.47;;;;;;;21.82;74.27;101502.22;4902497;29;20033;-89
2023/08/15 10:34:24;;;;;;;7.30;2.50;;;;;;;21.81;74.39;101504.97;4882808;29;20295;-93
2023/08/15 10:36:49;;;;;;;7.05;2.80;;;;;;;21.80;74.65;101508.59;4877627;29;20115;-92
2023/08/15 10:39:15;;;;;;;9.52;2.80;;;;;;;21.79;74.31;101514.81;4879799;29;20470;-90
2023/08/15 10:41:42;;;;;;;7.32;2.80;;;;;;;21.77;75.32;101522.00;4885553;29;20025;-92
2023/08/15 10:44:08;;;;;;;5.75;2.67;;;;;;;21.74;76.34;101515.13;4892929;29;20088;-95
2023/08/15 10:46:35;;;;;;;9.40;2.65;;;;;;;21.72;75.53;101514.34;4899470;29;20037;-95
2023/08/15 10:49:09;;;;;;;7.93;2.83;;;;;;;21.68;75.98;101516.34;4881227;29;20040;-93
2023/08/15 10:51:37;;;;;;;7.32;2.88;;;;;;;21.70;76.70;101515.38;4875404;29;20106;-93
2023/08/15 10:54:08;;;;;;;7.10;2.75;;;;;;;21.69;76.77;101506.59;4881946;29;20072;-91
2023/08/15 10:56:35;;;;;;;7.38;2.83;;;;;;;21.70;76.14;101507.44;4876989;29;20040;-91
2023/08/15 10:59:06;;;;;;;8.85;2.92;;;;;;;21.71;76.70;101506.50;4881590;29;20028;-95
2023/08/15 11:01:31;;;;;;;7.75;3.03;;;;;;;21.68;76.07;101511.06;4881584;29;20037;-90
2023/08/15 11:03:57;;;;;;;8.75;2.90;;;;;;;21.64;75.72;101514.84;4880432;29;20615;-90
2023/08/15 11:06:23;;;;;;;8.02;3.00;;;;;;;21.61;75.99;101508.84;4881952;29;20037;-91
2023/08/15 11:08:53;;;;;;;6.18;2.97;;;;;;;21.62;77.02;101511.44;4883882;29;21498;-92
2023/08/15 11:11:18;;;;;;;5.95;2.75;;;;;;;21.63;75.80;101513.13;4874891;29;20033;-92
2023/08/15 11:13:46;;;;;;;6.38;2.67;;;;;;;21.66;75.78;101510.31;4885715;29;20036;-91
2023/08/15 11:16:14;;;;;;;5.40;2.60;;;;;;;21.72;76.60;101510.84;4866550;29;20045;-91
2023/08/15 11:18:41;;;;;;;7.45;2.90;;;;;;;21.79;75.62;101509.53;4889171;29;20036;-94